Time;durP1;ratioP1;P1;durP2;ratioP2;P2;SDS_P1;SDS_P2;PMS_P1;PMS_P2;Temp;Humidity;BMP_temperature;BMP_pressure;BME280_temperature;BME280_humidity;BME280_pressure;Samples;Min_cycle;Max_cycle;Signal;HPM_P1;HPM_P2
2023/05/06 00:00:05;;;;;;;7.80;4.87;;;15.80;99.90;;;;;;5115591;27;20704;-78
2023/05/06 00:02:30;;;;;;;11.07;4.90;;;15.90;99.90;;;;;;5134139;27;20207;-79
2023/05/06 00:04:56;;;;;;;9.27;4.30;;;15.90;99.90;;;;;;5134606;27;20170;-78
2023/05/06 00:07:22;;;;;;;9.27;4.50;;;15.80;99.90;;;;;;5133728;27;20186;-79
2023/05/06 00:09:48;;;;;;;11.33;5.13;;;15.60;99.90;;;;;;5133818;27;20181;-79
2023/05/06 00:12:13;;;;;;;7.77;4.67;;;15.40;99.90;;;;;;5133145;27;20210;-78
2023/05/06 00:14:40;;;;;;;10.77;5.60;;;15.50;99.90;;;;;;5133724;27;20264;-78
2023/05/06 00:17:07;;;;;;;13.07;7.13;;;15.60;99.90;;;;;;5133232;27;20260;-78
2023/05/06 00:19:34;;;;;;;14.57;6.60;;;15.60;99.90;;;;;;5115036;27;20662;-78
2023/05/06 00:22:00;;;;;;;11.80;6.37;;;15.50;99.90;;;;;;5132497;27;20169;-79
2023/05/06 00:24:26;;;;;;;13.87;6.60;;;15.50;99.90;;;;;;5134166;27;20160;-78
2023/05/06 00:26:52;;;;;;;11.10;5.67;;;15.50;99.90;;;;;;5133960;27;20277;-78
2023/05/06 00:29:18;;;;;;;15.57;6.63;;;15.40;99.90;;;;;;5133769;27;20223;-78
2023/05/06 00:31:44;;;;;;;14.03;6.57;;;15.20;99.90;;;;;;5114462;28;20274;-78
2023/05/06 00:34:10;;;;;;;14.77;7.00;;;15.30;99.90;;;;;;5115429;28;20276;-78
2023/05/06 00:36:37;;;;;;;14.63;7.80;;;15.40;99.90;;;;;;5115365;28;20609;-78
2023/05/06 00:39:04;;;;;;;15.40;7.77;;;15.30;99.90;;;;;;5117394;27;20601;-79
2023/05/06 00:41:31;;;;;;;14.10;7.43;;;15.20;99.90;;;;;;5119104;27;20581;-78
2023/05/06 00:43:58;;;;;;;13.83;6.97;;;15.30;99.90;;;;;;5119812;27;20177;-77
2023/05/06 00:46:24;;;;;;;13.93;7.30;;;15.30;99.90;;;;;;5137754;27;20593;-75
2023/05/06 00:48:51;;;;;;;11.63;6.17;;;15.50;99.90;;;;;;5118929;27;20177;-75
2023/05/06 00:51:17;;;;;;;11.33;6.00;;;15.40;99.90;;;;;;5119307;27;20173;-75
2023/05/06 00:53:47;;;;;;;12.53;5.93;;;15.20;99.90;;;;;;5119261;27;20611;-76
2023/05/06 00:56:12;;;;;;;15.50;5.93;;;15.20;99.90;;;;;;5118883;27;20225;-75
2023/05/06 00:58:38;;;;;;;10.73;5.63;;;15.20;99.90;;;;;;5115873;27;20264;-75
2023/05/06 01:01:04;;;;;;;10.87;5.70;;;15.20;99.90;;;;;;5134710;27;20188;-75
2023/05/06 01:03:32;;;;;;;9.40;5.17;;;15.30;99.90;;;;;;5135053;27;20216;-75
2023/05/06 01:06:00;;;;;;;8.57;4.37;;;15.20;99.90;;;;;;5118732;27;20169;-75
2023/05/06 01:08:36;;;;;;;9.80;4.47;;;15.30;99.90;;;;;;5117380;27;20166;-75
2023/05/06 01:11:10;;;;;;;12.03;5.80;;;15.30;99.90;;;;;;5098078;28;20170;-75
2023/05/06 01:13:45;;;;;;;12.20;5.73;;;15.40;99.90;;;;;;5116067;28;20205;-76
2023/05/06 01:16:13;;;;;;;13.53;6.47;;;15.50;99.90;;;;;;5098222;28;20184;-76
2023/05/06 01:18:41;;;;;;;13.43;6.83;;;15.30;99.90;;;;;;5098127;28;20178;-77
2023/05/06 01:21:08;;;;;;;10.63;6.37;;;15.30;99.90;;;;;;5116430;28;20204;-77
2023/05/06 01:23:56;;;;;;;13.63;6.60;;;15.30;99.90;;;;;;5116261;27;20549;-77
2023/05/06 01:26:23;;;;;;;13.33;5.97;;;15.40;99.90;;;;;;5116437;28;20162;-77
2023/05/06 01:28:49;;;;;;;11.57;5.47;;;15.20;99.90;;;;;;5116061;28;20321;-77
2023/05/06 01:31:23;;;;;;;15.17;6.00;;;15.30;99.90;;;;;;5116341;28;20354;-77
2023/05/06 01:34:01;;;;;;;11.23;5.73;;;15.20;99.90;;;;;;5116045;28;20186;-77
2023/05/06 01:36:56;;;;;;;9.90;4.70;;;15.30;99.90;;;;;;5116076;28;20567;-77
2023/05/06 01:39:29;;;;;;;8.43;4.77;;;15.30;99.90;;;;;;5097756;28;20186;-77
2023/05/06 01:41:59;;;;;;;11.57;4.90;;;15.20;99.90;;;;;;5115953;28;20216;-77
2023/05/06 01:44:27;;;;;;;8.60;4.80;;;15.30;99.90;;;;;;5097241;27;20185;-77
2023/05/06 01:46:55;;;;;;;9.33;4.50;;;15.30;99.90;;;;;;5097694;28;20253;-77
2023/05/06 01:49:23;;;;;;;8.97;4.33;;;15.30;99.90;;;;;;5115740;28;20169;-76
2023/05/06 01:51:51;;;;;;;9.67;4.20;;;15.30;99.90;;;;;;5107671;27;20676;-77
2023/05/06 01:54:17;;;;;;;10.23;4.93;;;15.30;99.90;;;;;;5136202;27;20167;-77
2023/05/06 01:56:43;;;;;;;9.00;4.50;;;15.50;99.90;;;;;;5136178;27;20168;-77
2023/05/06 01:59:09;;;;;;;6.43;4.00;;;15.60;99.90;;;;;;5135921;27;20172;-76
2023/05/06 02:01:34;;;;;;;8.67;4.33;;;15.50;99.90;;;;;;5117441;27;20280;-76
2023/05/06 02:04:00;;;;;;;8.87;4.33;;;15.50;99.90;;;;;;5135638;27;20189;-77
2023/05/06 02:06:27;;;;;;;8.07;3.93;;;15.70;99.90;;;;;;5117857;27;20212;-77
2023/05/06 02:08:52;;;;;;;8.57;4.13;;;15.60;99.90;;;;;;5135945;27;20569;-77
2023/05/06 02:11:18;;;;;;;8.63;3.73;;;15.70;99.90;;;;;;5117174;27;20276;-77
2023/05/06 02:13:44;;;;;;;6.30;3.67;;;15.80;99.90;;;;;;5117307;27;20555;-77
2023/05/06 02:16:10;;;;;;;7.20;3.17;;;15.60;99.90;;;;;;5117321;27;20177;-77
2023/05/06 02:18:35;;;;;;;5.93;3.20;;;15.40;99.90;;;;;;5135987;27;20168;-76
2023/05/06 02:21:02;;;;;;;5.20;3.03;;;15.20;99.90;;;;;;5135424;27;20241;-77
2023/05/06 02:23:28;;;;;;;5.70;3.50;;;15.10;99.90;;;;;;5117651;27;20177;-77
2023/05/06 02:25:56;;;;;;;5.80;3.30;;;15.20;99.90;;;;;;5136459;27;20218;-77
2023/05/06 02:28:25;;;;;;;6.43;3.33;;;15.10;99.90;;;;;;5116448;27;20702;-79
2023/05/06 02:30:57;;;;;;;6.50;3.27;;;15.10;99.90;;;;;;5096702;28;20699;-77
2023/05/06 02:33:23;;;;;;;4.97;3.10;;;15.20;99.90;;;;;;5097003;28;20573;-77
2023/05/06 02:35:49;;;;;;;6.63;3.03;;;15.20;99.90;;;;;;5096773;28;20170;-77
2023/05/06 02:38:15;;;;;;;4.60;2.97;;;15.10;99.90;;;;;;5114930;28;20646;-76
2023/05/06 02:40:43;;;;;;;5.67;3.23;;;15.20;99.90;;;;;;5114575;28;20174;-77
2023/05/06 02:43:08;;;;;;;5.47;2.80;;;15.10;99.90;;;;;;5115228;28;20257;-77
2023/05/06 02:45:34;;;;;;;6.90;3.27;;;15.10;99.90;;;;;;5096426;28;20213;-77
2023/05/06 02:47:59;;;;;;;7.27;4.17;;;15.10;99.90;;;;;;5114697;28;20232;-77
2023/05/06 02:50:25;;;;;;;5.90;3.77;;;15.20;99.90;;;;;;5096221;28;20253;-77
2023/05/06 02:52:51;;;;;;;6.80;4.00;;;15.20;99.90;;;;;;5096315;28;20225;-77
2023/05/06 02:55:17;;;;;;;7.43;3.83;;;15.20;99.90;;;;;;5096224;28;20253;-77
2023/05/06 02:57:43;;;;;;;6.20;3.57;;;15.20;99.90;;;;;;5114861;28;20188;-77
2023/05/06 03:00:12;;;;;;;7.13;3.83;;;15.20;99.90;;;;;;5096571;28;20538;-77
2023/05/06 03:02:38;;;;;;;7.10;3.87;;;15.20;99.90;;;;;;5114318;28;20213;-77
2023/05/06 03:05:05;;;;;;;20.17;5.63;;;15.10;99.90;;;;;;5122823;27;20181;-77
2023/05/06 03:07:31;;;;;;;7.50;4.13;;;15.20;99.90;;;;;;5135242;27;20177;-77
2023/05/06 03:09:56;;;;;;;11.30;5.30;;;15.20;99.90;;;;;;5116492;27;20245;-77
2023/05/06 03:12:22;;;;;;;10.10;5.67;;;15.10;99.90;;;;;;5116299;27;20216;-77
2023/05/06 03:14:47;;;;;;;15.30;7.43;;;15.10;99.90;;;;;;5134034;27;20252;-76
2023/05/06 03:17:13;;;;;;;16.10;7.80;;;15.20;99.90;;;;;;5116488;27;20260;-78
2023/05/06 03:19:40;;;;;;;20.33;8.93;;;15.10;99.90;;;;;;5134719;27;20165;-77
2023/05/06 03:22:05;;;;;;;19.33;9.87;;;15.20;99.90;;;;;;5116089;27;20186;-77
2023/05/06 03:24:31;;;;;;;20.03;9.03;;;15.10;99.90;;;;;;5134540;27;20574;-77
2023/05/06 03:26:57;;;;;;;18.97;9.00;;;15.00;99.90;;;;;;5116456;27;20165;-78
2023/05/06 03:29:24;;;;;;;18.53;8.80;;;14.90;99.90;;;;;;5134502;27;20227;-76
2023/05/06 03:31:50;;;;;;;19.07;9.27;;;14.90;99.90;;;;;;5116130;27;20204;-77
2023/05/06 03:34:16;;;;;;;15.30;8.10;;;14.90;99.90;;;;;;5115825;27;20467;-77
2023/05/06 03:36:41;;;;;;;13.20;6.73;;;14.90;99.90;;;;;;5134587;27;20637;-77
2023/05/06 03:39:09;;;;;;;15.30;7.07;;;14.90;99.90;;;;;;5134531;27;20618;-78
2023/05/06 03:41:34;;;;;;;15.40;6.97;;;14.90;99.90;;;;;;5116272;27;20173;-78
2023/05/06 03:44:00;;;;;;;12.77;6.10;;;14.90;99.90;;;;;;5123308;27;20182;-77
2023/05/06 03:46:27;;;;;;;13.60;6.07;;;15.00;99.90;;;;;;5113639;28;20171;-77
2023/05/06 03:48:52;;;;;;;12.17;5.93;;;15.00;99.90;;;;;;5113779;28;20215;-77
2023/05/06 03:51:19;;;;;;;16.07;7.70;;;14.80;99.90;;;;;;5113760;28;20162;-76
2023/05/06 03:53:45;;;;;;;13.40;6.37;;;14.70;99.90;;;;;;5095266;28;20211;-76
2023/05/06 03:56:10;;;;;;;12.73;5.83;;;14.60;99.90;;;;;;5113361;28;20706;-76
2023/05/06 03:58:36;;;;;;;11.83;5.67;;;14.70;99.90;;;;;;5095167;28;20654;-77
2023/05/06 04:01:03;;;;;;;14.47;6.23;;;14.70;99.90;;;;;;5095133;28;20181;-77
2023/05/06 04:03:29;;;;;;;10.80;5.97;;;14.70;99.90;;;;;;5113334;28;20169;-77
2023/05/06 04:05:54;;;;;;;14.43;6.07;;;14.60;99.90;;;;;;5113430;28;20173;-76
2023/05/06 04:08:20;;;;;;;15.10;6.43;;;14.40;99.90;;;;;;5113526;28;20174;-77
2023/05/06 04:10:46;;;;;;;14.17;6.00;;;14.30;99.90;;;;;;5095245;28;20622;-77
2023/05/06 04:13:11;;;;;;;12.40;5.77;;;14.30;99.90;;;;;;5094603;28;20228;-77
2023/05/06 04:15:40;;;;;;;13.00;5.63;;;14.30;99.90;;;;;;5113480;28;20170;-78
2023/05/06 04:18:07;;;;;;;11.43;5.43;;;14.20;99.90;;;;;;5095294;28;20272;-76
2023/05/06 04:20:32;;;;;;;13.10;6.03;;;14.20;99.90;;;;;;5095505;28;20181;-75
2023/05/06 04:23:04;;;;;;;14.63;6.23;;;14.10;99.90;;;;;;5113785;28;20180;-77
2023/05/06 04:25:31;;;;;;;13.93;5.93;;;14.20;99.90;;;;;;5113308;28;20236;-75
2023/05/06 04:27:58;;;;;;;12.63;6.03;;;14.10;99.90;;;;;;5094427;28;20178;-74
2023/05/06 04:30:23;;;;;;;12.30;5.73;;;14.10;99.90;;;;;;5113089;28;20182;-76
2023/05/06 04:32:49;;;;;;;12.47;5.73;;;14.00;99.90;;;;;;5112559;27;20259;-76
2023/05/06 04:35:15;;;;;;;12.70;5.60;;;14.10;99.90;;;;;;5094745;28;20582;-75
2023/05/06 04:37:40;;;;;;;15.20;6.63;;;14.20;99.90;;;;;;5094601;28;20203;-76
2023/05/06 04:40:08;;;;;;;10.70;5.60;;;14.10;99.90;;;;;;5113119;28;20634;-77
2023/05/06 04:42:33;;;;;;;13.80;6.17;;;14.10;99.90;;;;;;5095506;28;20185;-76
2023/05/06 04:44:59;;;;;;;12.37;6.20;;;14.20;99.90;;;;;;5095922;28;20174;-76
2023/05/06 04:47:25;;;;;;;12.40;6.03;;;14.20;99.90;;;;;;5095890;28;20177;-76
2023/05/06 04:49:50;;;;;;;13.17;6.83;;;14.20;99.90;;;;;;5094694;28;20178;-77
2023/05/06 04:52:16;;;;;;;13.27;5.80;;;14.10;99.90;;;;;;5094733;28;20711;-75
2023/05/06 04:54:42;;;;;;;11.13;6.00;;;14.10;99.90;;;;;;5094763;28;20166;-74
2023/05/06 04:57:07;;;;;;;15.23;5.97;;;14.20;99.90;;;;;;5094238;28;20267;-76
2023/05/06 04:59:33;;;;;;;11.00;5.47;;;14.20;99.90;;;;;;5094461;28;20173;-75
2023/05/06 05:02:00;;;;;;;11.67;6.03;;;14.20;99.90;;;;;;5094475;28;20252;-75
2023/05/06 05:04:25;;;;;;;12.23;5.47;;;14.20;99.90;;;;;;5094351;28;20182;-75
2023/05/06 05:06:51;;;;;;;10.43;5.33;;;14.20;99.90;;;;;;5094307;28;20176;-75
2023/05/06 05:09:17;;;;;;;11.23;5.93;;;14.30;99.90;;;;;;5112377;28;20174;-75
2023/05/06 05:11:43;;;;;;;12.53;5.20;;;14.30;99.90;;;;;;5112397;28;20189;-77
2023/05/06 05:14:08;;;;;;;12.83;5.33;;;14.40;99.90;;;;;;5112615;28;20194;-77
2023/05/06 05:16:34;;;;;;;10.20;5.03;;;14.40;99.90;;;;;;5112950;28;20495;-77
2023/05/06 05:19:01;;;;;;;11.67;4.70;;;14.40;99.90;;;;;;5113978;28;20238;-77
2023/05/06 05:21:26;;;;;;;8.07;4.60;;;14.40;99.90;;;;;;5114742;28;20669;-77
2023/05/06 05:23:52;;;;;;;11.70;4.77;;;14.50;99.90;;;;;;5114667;28;20173;-77
2023/05/06 05:26:18;;;;;;;12.50;5.77;;;14.60;99.90;;;;;;5118223;27;20169;-77
2023/05/06 05:28:44;;;;;;;12.60;5.47;;;14.50;99.90;;;;;;5136708;27;20574;-77
2023/05/06 05:31:10;;;;;;;14.43;5.80;;;14.50;99.90;;;;;;5118776;27;20171;-77
2023/05/06 05:33:36;;;;;;;11.47;5.27;;;14.50;99.90;;;;;;5104775;28;20194;-76
2023/05/06 05:36:03;;;;;;;12.63;5.17;;;14.60;99.90;;;;;;5098093;28;20663;-77
2023/05/06 05:38:30;;;;;;;8.73;5.03;;;14.60;99.90;;;;;;5115995;28;20173;-77
2023/05/06 05:40:56;;;;;;;13.17;4.90;;;14.70;99.90;;;;;;5097600;28;20196;-77
2023/05/06 05:43:24;;;;;;;12.70;5.20;;;14.70;99.90;;;;;;5097630;28;20183;-77
2023/05/06 05:45:50;;;;;;;15.37;5.30;;;14.70;99.90;;;;;;5123856;27;20212;-77
2023/05/06 05:48:15;;;;;;;12.57;5.40;;;14.70;99.90;;;;;;5117736;27;20185;-76
2023/05/06 05:50:42;;;;;;;10.33;5.80;;;14.90;99.90;;;;;;5136565;27;20268;-77
2023/05/06 05:53:08;;;;;;;9.33;4.17;;;14.90;99.90;;;;;;5135147;27;20215;-77
2023/05/06 05:55:33;;;;;;;10.60;4.87;;;15.00;99.90;;;;;;5135856;27;20256;-77
2023/05/06 05:58:00;;;;;;;8.67;4.70;;;15.00;99.90;;;;;;5112991;28;20586;-77
2023/05/06 06:00:26;;;;;;;10.87;4.70;;;15.10;99.90;;;;;;5097714;28;20174;-77
2023/05/06 06:02:52;;;;;;;12.10;5.00;;;15.20;99.90;;;;;;5097253;28;20183;-77
2023/05/06 06:05:18;;;;;;;9.17;4.57;;;15.30;99.90;;;;;;5124522;27;20252;-77
2023/05/06 06:07:44;;;;;;;9.93;4.73;;;15.30;99.90;;;;;;5135844;27;20234;-77
2023/05/06 06:10:12;;;;;;;9.33;4.57;;;15.40;99.90;;;;;;5135968;27;20194;-77
2023/05/06 06:12:38;;;;;;;6.73;3.57;;;15.50;99.90;;;;;;5116970;27;20218;-77
2023/05/06 06:15:04;;;;;;;8.13;4.30;;;15.60;99.90;;;;;;5135802;27;20176;-77
2023/05/06 06:17:30;;;;;;;9.40;4.20;;;15.80;99.90;;;;;;5108790;28;20271;-77
2023/05/06 06:19:58;;;;;;;7.73;4.20;;;15.80;99.90;;;;;;5132133;27;20183;-77
2023/05/06 06:22:25;;;;;;;6.47;3.97;;;15.90;99.90;;;;;;5124104;27;20515;-78
2023/05/06 06:24:53;;;;;;;9.83;4.27;;;16.00;99.90;;;;;;5115877;28;20168;-76
2023/05/06 06:27:19;;;;;;;8.00;4.40;;;16.00;99.90;;;;;;5116138;28;20571;-76
2023/05/06 06:29:48;;;;;;;7.37;3.93;;;16.10;99.90;;;;;;5126028;27;20179;-76
2023/05/06 06:32:13;;;;;;;7.63;3.53;;;16.20;99.90;;;;;;5135643;27;20210;-77
2023/05/06 06:34:39;;;;;;;5.93;3.73;;;16.30;99.90;;;;;;5133933;27;20171;-76
2023/05/06 06:37:05;;;;;;;8.03;3.60;;;16.50;99.90;;;;;;5115000;27;20190;-76
2023/05/06 06:39:31;;;;;;;4.70;2.90;;;16.70;99.90;;;;;;5117151;27;20296;-76
2023/05/06 06:41:57;;;;;;;6.07;2.90;;;16.80;99.90;;;;;;5117277;27;20290;-76
2023/05/06 06:44:23;;;;;;;7.47;3.20;;;17.00;99.90;;;;;;5114638;27;20227;-76
2023/05/06 06:46:48;;;;;;;8.00;3.07;;;17.00;99.90;;;;;;5098180;28;20178;-76
2023/05/06 06:49:15;;;;;;;5.87;2.50;;;17.00;99.90;;;;;;5114726;28;20162;-76
2023/05/06 06:51:41;;;;;;;9.40;3.10;;;17.00;99.90;;;;;;5114544;28;20188;-76
2023/05/06 06:54:06;;;;;;;4.60;2.87;;;17.30;99.90;;;;;;5118122;27;20182;-76
2023/05/06 06:56:33;;;;;;;4.43;2.57;;;17.40;99.90;;;;;;5114835;28;20171;-76
2023/05/06 06:58:58;;;;;;;4.43;2.70;;;17.50;99.90;;;;;;5114963;28;20309;-76
2023/05/06 07:01:24;;;;;;;5.30;2.67;;;17.60;99.90;;;;;;5114423;28;20262;-76
2023/05/06 07:03:50;;;;;;;3.53;2.37;;;17.50;99.90;;;;;;5096510;28;20200;-76
2023/05/06 07:06:15;;;;;;;5.37;2.80;;;17.40;99.90;;;;;;5096048;28;20174;-77
2023/05/06 07:08:41;;;;;;;7.67;2.60;;;17.50;99.90;;;;;;5114591;28;20169;-77
2023/05/06 07:11:06;;;;;;;8.30;2.87;;;17.70;99.90;;;;;;5114529;28;20193;-77
2023/05/06 07:13:34;;;;;;;4.20;2.67;;;17.90;99.90;;;;;;5114358;28;20204;-76
2023/05/06 07:15:59;;;;;;;6.20;2.80;;;18.20;99.90;;;;;;5114246;28;20517;-77
2023/05/06 07:18:25;;;;;;;6.33;2.97;;;18.50;99.90;;;;;;5117715;27;20182;-77
2023/05/06 07:20:50;;;;;;;7.20;3.10;;;18.70;99.90;;;;;;5113822;28;20181;-78
2023/05/06 07:23:16;;;;;;;4.23;2.40;;;18.60;99.90;;;;;;5114001;28;20195;-78
2023/05/06 07:25:42;;;;;;;6.60;2.70;;;18.70;99.90;;;;;;5114021;28;20169;-76
2023/05/06 07:28:07;;;;;;;5.63;2.90;;;18.50;99.90;;;;;;5134983;27;20177;-76
2023/05/06 07:30:33;;;;;;;9.57;2.50;;;18.50;99.90;;;;;;5104768;27;20537;-76
2023/05/06 07:32:58;;;;;;;5.23;2.83;;;18.80;99.90;;;;;;5134798;27;20591;-76
2023/05/06 07:35:24;;;;;;;4.93;2.50;;;19.00;99.90;;;;;;5116214;27;20177;-76
2023/05/06 07:37:50;;;;;;;7.00;2.70;;;19.10;99.90;;;;;;5134796;27;20176;-77
2023/05/06 07:40:16;;;;;;;4.63;2.07;;;19.30;99.90;;;;;;5115689;27;20279;-77
2023/05/06 07:42:43;;;;;;;5.37;2.67;;;19.50;99.90;;;;;;5134085;27;20169;-77
2023/05/06 07:45:09;;;;;;;4.93;2.17;;;19.40;99.90;;;;;;5116797;27;20724;-77
2023/05/06 07:47:35;;;;;;;5.60;2.97;;;19.40;99.90;;;;;;5113053;28;20627;-79
2023/05/06 07:50:01;;;;;;;5.63;2.80;;;19.50;99.90;;;;;;5112869;28;20177;-76
2023/05/06 07:52:28;;;;;;;5.67;2.80;;;19.50;99.90;;;;;;5117307;27;20356;-77
2023/05/06 07:54:53;;;;;;;6.23;2.30;;;19.40;99.90;;;;;;5123180;27;20181;-78
2023/05/06 07:57:19;;;;;;;6.53;3.10;;;19.50;99.90;;;;;;5095022;28;20181;-77
2023/05/06 07:59:49;;;;;;;7.23;3.13;;;19.40;99.90;;;;;;5113619;28;20535;-78
2023/05/06 08:02:15;;;;;;;6.00;2.60;;;19.40;99.90;;;;;;5113320;28;20176;-76
2023/05/06 08:04:41;;;;;;;5.13;2.60;;;19.40;99.90;;;;;;5113223;28;20264;-77
2023/05/06 08:07:07;;;;;;;5.83;2.70;;;19.50;99.90;;;;;;5113362;28;20170;-77
2023/05/06 08:09:32;;;;;;;6.00;2.23;;;19.50;99.90;;;;;;5113545;28;20177;-77
2023/05/06 08:11:58;;;;;;;5.60;2.40;;;19.20;99.90;;;;;;5097652;28;20220;-77
2023/05/06 08:14:27;;;;;;;4.30;2.20;;;19.20;99.90;;;;;;5095584;28;20180;-77
2023/05/06 08:16:55;;;;;;;3.50;1.87;;;19.40;99.90;;;;;;5125129;28;20166;-77
2023/05/06 08:19:30;;;;;;;2.60;1.70;;;19.60;99.90;;;;;;5107317;28;20242;-76
2023/05/06 08:21:56;;;;;;;4.33;1.53;;;19.80;99.90;;;;;;5122446;28;20169;-77
2023/05/06 08:24:22;;;;;;;4.67;2.30;;;20.00;99.90;;;;;;5113775;28;20675;-77
2023/05/06 08:26:48;;;;;;;4.83;1.87;;;20.00;99.90;;;;;;5099710;28;20177;-77
2023/05/06 08:29:14;;;;;;;3.97;2.03;;;20.10;99.90;;;;;;5095424;28;20196;-77
2023/05/06 08:31:42;;;;;;;5.83;1.93;;;20.10;99.90;;;;;;5113487;28;20592;-78
2023/05/06 08:34:07;;;;;;;4.17;1.90;;;20.10;99.90;;;;;;5095427;28;20191;-78
2023/05/06 08:36:34;;;;;;;4.27;1.83;;;20.40;99.90;;;;;;5113193;28;20643;-77
2023/05/06 08:39:00;;;;;;;8.40;1.40;;;20.40;99.90;;;;;;5113812;28;20162;-77
2023/05/06 08:41:29;;;;;;;5.43;2.30;;;20.50;99.90;;;;;;5095193;28;20611;-77
2023/05/06 08:43:57;;;;;;;3.87;2.10;;;20.60;99.90;;;;;;5095035;28;20182;-77
2023/05/06 08:46:24;;;;;;;4.33;1.60;;;20.80;99.90;;;;;;5113326;28;20182;-76
2023/05/06 08:48:49;;;;;;;6.33;3.47;;;21.20;99.90;;;;;;5111583;28;20767;-77
2023/05/06 08:51:15;;;;;;;11.20;6.70;;;20.70;99.90;;;;;;5114766;28;20264;-77
2023/05/06 08:53:48;;;;;;;6.90;3.23;;;20.70;99.90;;;;;;5133682;28;20277;-77
2023/05/06 08:56:15;;;;;;;4.87;1.67;;;21.10;99.90;;;;;;5133760;28;20581;-78
2023/05/06 08:58:45;;;;;;;4.13;1.20;;;21.40;99.90;;;;;;5106659;28;20177;-77
2023/05/06 09:01:14;;;;;;;2.93;0.93;;;21.70;99.90;;;;;;5119093;27;20181;-76
2023/05/06 09:03:41;;;;;;;3.23;1.03;;;21.70;99.90;;;;;;5117181;28;21319;-77
2023/05/06 09:06:06;;;;;;;2.37;1.50;;;22.00;99.90;;;;;;5116770;28;20185;-77
2023/05/06 09:08:32;;;;;;;5.77;2.83;;;22.00;99.90;;;;;;5116693;28;20166;-77
2023/05/06 09:10:58;;;;;;;1.90;0.90;;;22.10;99.90;;;;;;5098172;28;20252;-77
2023/05/06 09:13:24;;;;;;;3.00;1.40;;;22.40;99.90;;;;;;5116992;28;20280;-77
2023/05/06 09:15:53;;;;;;;1.97;1.13;;;22.60;99.90;;;;;;5121845;27;20169;-76
2023/05/06 09:18:19;;;;;;;3.37;1.27;;;22.70;99.90;;;;;;5137256;27;20241;-76
2023/05/06 09:20:47;;;;;;;1.97;1.03;;;23.00;99.90;;;;;;5119077;27;20195;-76
2023/05/06 09:23:16;;;;;;;4.47;1.13;;;23.20;99.90;;;;;;5118935;27;20174;-78
2023/05/06 09:25:44;;;;;;;4.03;1.43;;;23.10;99.70;;;;;;5125094;27;20513;-77
2023/05/06 09:28:11;;;;;;;2.13;1.00;;;23.10;99.90;;;;;;5136884;27;20167;-77
2023/05/06 09:30:39;;;;;;;2.17;0.83;;;23.10;99.70;;;;;;5118483;27;20566;-77
2023/05/06 09:33:06;;;;;;;2.67;1.40;;;23.00;99.60;;;;;;5118358;27;20212;-76
2023/05/06 09:35:36;;;;;;;2.37;0.97;;;22.70;99.90;;;;;;5122458;27;20180;-76
2023/05/06 09:38:02;;;;;;;3.20;1.30;;;22.10;99.90;;;;;;5116267;28;20162;-76
2023/05/06 09:40:29;;;;;;;7.60;2.67;;;22.00;99.90;;;;;;5097852;28;20170;-77
2023/05/06 09:42:56;;;;;;;2.37;0.90;;;22.20;99.90;;;;;;5116824;28;20231;-77
2023/05/06 09:45:23;;;;;;;5.33;3.23;;;21.90;99.90;;;;;;5121649;27;20634;-77
2023/05/06 09:47:49;;;;;;;5.30;3.17;;;21.90;99.90;;;;;;5120338;27;20664;-77
2023/05/06 09:50:15;;;;;;;3.63;1.17;;;22.10;99.90;;;;;;5116118;27;20190;-76
2023/05/06 09:52:44;;;;;;;2.20;0.73;;;21.90;99.90;;;;;;5115992;28;20213;-77
2023/05/06 09:55:11;;;;;;;3.60;0.93;;;22.30;99.60;;;;;;5116032;28;20528;-76
2023/05/06 09:57:40;;;;;;;4.00;0.90;;;22.60;98.80;;;;;;5116170;28;20231;-77
2023/05/06 10:00:10;;;;;;;7.47;3.50;;;23.00;98.00;;;;;;5115825;28;20174;-76
2023/05/06 10:02:38;;;;;;;3.17;1.37;;;23.20;97.30;;;;;;5116261;28;20201;-76
2023/05/06 10:05:07;;;;;;;3.97;1.27;;;23.40;96.70;;;;;;5115586;28;20167;-76
2023/05/06 10:07:35;;;;;;;3.60;1.83;;;23.50;97.10;;;;;;5097381;28;20559;-76
2023/05/06 10:10:06;;;;;;;4.37;2.60;;;23.40;97.50;;;;;;5115892;28;20197;-77
2023/05/06 10:12:32;;;;;;;7.00;1.17;;;23.40;97.70;;;;;;5096175;28;20256;-77
2023/05/06 10:14:58;;;;;;;3.03;1.93;;;23.70;97.30;;;;;;5115590;28;20191;-75
2023/05/06 10:17:27;;;;;;;6.70;1.63;;;23.60;97.30;;;;;;5115406;28;20170;-76
2023/05/06 10:19:56;;;;;;;3.17;1.30;;;23.50;97.30;;;;;;5115474;28;20540;-76
2023/05/06 10:22:51;;;;;;;4.13;1.40;;;23.50;97.60;;;;;;5114995;28;20192;-76
2023/05/06 10:25:29;;;;;;;4.03;1.50;;;23.70;97.10;;;;;;5114828;28;20170;-76
2023/05/06 10:27:55;;;;;;;4.97;1.10;;;23.60;97.20;;;;;;5096810;28;20211;-77
2023/05/06 10:30:22;;;;;;;5.70;2.00;;;23.90;96.90;;;;;;5114661;28;20213;-76
2023/05/06 10:32:51;;;;;;;2.03;1.03;;;23.90;96.70;;;;;;5096458;28;20296;-77
2023/05/06 10:35:37;;;;;;;3.83;1.30;;;23.70;96.10;;;;;;5114963;28;20618;-77
2023/05/06 10:38:05;;;;;;;3.27;1.17;;;24.00;95.60;;;;;;5115250;28;20185;-78
2023/05/06 10:40:52;;;;;;;3.67;1.67;;;23.80;96.30;;;;;;5097251;28;20217;-77
2023/05/06 10:43:32;;;;;;;5.13;1.90;;;23.10;97.40;;;;;;5115152;28;20652;-79
2023/05/06 10:46:19;;;;;;;2.97;1.63;;;23.20;97.40;;;;;;5096527;28;20204;-79
2023/05/06 10:49:03;;;;;;;3.17;1.33;;;23.60;97.20;;;;;;5114551;28;20182;-79
2023/05/06 10:51:30;;;;;;;4.60;1.10;;;24.40;95.90;;;;;;5096360;28;20177;-78
2023/05/06 10:54:02;;;;;;;2.43;1.00;;;24.30;95.10;;;;;;5096167;28;20212;-77
2023/05/06 10:56:56;;;;;;;4.43;0.83;;;24.20;95.20;;;;;;5095426;28;20304;-80
2023/05/06 10:59:30;;;;;;;5.30;1.40;;;24.40;94.90;;;;;;5110754;28;20668;-78
2023/05/06 11:02:03;;;;;;;7.30;3.60;;;24.40;94.40;;;;;;5114161;28;20698;-78
2023/05/06 11:04:31;;;;;;;2.07;1.20;;;23.80;95.20;;;;;;5095679;28;20201;-79
2023/05/06 11:07:26;;;;;;;4.93;1.90;;;23.40;95.70;;;;;;5113665;28;20163;-78
2023/05/06 11:10:04;;;;;;;5.00;1.30;;;23.50;95.90;;;;;;5096631;28;20178;-78
2023/05/06 11:12:48;;;;;;;4.73;1.20;;;23.90;95.30;;;;;;5095435;28;20213;-78
2023/05/06 11:15:24;;;;;;;5.53;1.77;;;24.30;94.80;;;;;;5095664;28;20210;-78
2023/05/06 11:17:51;;;;;;;4.07;1.50;;;24.20;94.80;;;;;;5114900;28;20164;-78
2023/05/06 11:20:19;;;;;;;5.87;2.17;;;24.20;94.70;;;;;;5114275;28;20193;-78
2023/05/06 11:22:44;;;;;;;4.40;1.63;;;24.20;94.40;;;;;;5113619;28;20244;-78
2023/05/06 11:25:10;;;;;;;5.43;1.40;;;24.30;94.70;;;;;;5095377;28;20640;-78
2023/05/06 11:27:37;;;;;;;2.60;1.10;;;23.70;95.50;;;;;;5113483;28;20162;-78
2023/05/06 11:30:04;;;;;;;5.63;1.57;;;23.80;95.30;;;;;;5094958;28;20176;-77
2023/05/06 11:32:31;;;;;;;4.30;1.33;;;24.20;94.80;;;;;;5112852;28;20632;-77
2023/05/06 11:34:58;;;;;;;3.80;1.43;;;24.60;94.70;;;;;;5095156;28;20318;-76
2023/05/06 11:37:28;;;;;;;5.37;1.40;;;24.70;94.50;;;;;;5094570;28;20162;-76
2023/05/06 11:39:54;;;;;;;4.80;1.60;;;24.90;94.20;;;;;;5095571;28;20233;-77
2023/05/06 11:42:27;;;;;;;4.33;1.60;;;24.90;93.30;;;;;;5113190;28;20594;-76
2023/05/06 11:44:54;;;;;;;3.33;1.33;;;24.80;93.30;;;;;;5113613;28;20666;-76
2023/05/06 11:47:22;;;;;;;4.70;1.60;;;24.80;93.40;;;;;;5113177;28;20626;-76
2023/05/06 11:49:52;;;;;;;4.33;1.43;;;24.80;93.40;;;;;;5113688;28;20166;-77
2023/05/06 11:52:20;;;;;;;5.07;1.27;;;25.00;93.30;;;;;;5113441;28;20194;-77
2023/05/06 11:54:54;;;;;;;3.10;1.23;;;24.90;93.20;;;;;;5112778;28;20173;-77
2023/05/06 11:57:20;;;;;;;4.03;1.20;;;24.70;92.80;;;;;;5112599;28;20165;-77
2023/05/06 11:59:46;;;;;;;2.50;1.10;;;24.60;92.90;;;;;;5094580;28;20185;-77
2023/05/06 12:02:13;;;;;;;4.47;1.37;;;24.60;93.40;;;;;;5112831;28;20177;-76
2023/05/06 12:04:45;;;;;;;5.80;1.20;;;24.40;93.60;;;;;;5112683;28;20168;-77
2023/05/06 12:07:13;;;;;;;3.37;1.10;;;24.00;94.10;;;;;;5114434;28;20548;-78
2023/05/06 12:09:46;;;;;;;4.83;1.37;;;24.20;94.00;;;;;;5095916;28;20314;-78
2023/05/06 12:12:15;;;;;;;5.17;1.30;;;24.30;93.80;;;;;;5113952;28;20274;-78
2023/05/06 12:14:44;;;;;;;3.10;1.80;;;23.80;94.00;;;;;;5112584;28;20645;-77
2023/05/06 12:17:11;;;;;;;4.20;1.37;;;23.70;94.20;;;;;;5093954;28;20552;-77
2023/05/06 12:19:37;;;;;;;4.57;1.33;;;23.50;94.20;;;;;;5094121;28;20170;-78
2023/05/06 12:22:23;;;;;;;4.37;1.90;;;23.20;94.50;;;;;;5112249;28;20509;-77
2023/05/06 12:24:51;;;;;;;4.20;1.50;;;23.30;94.60;;;;;;5094465;28;20177;-77
2023/05/06 12:27:33;;;;;;;3.93;1.23;;;23.30;93.90;;;;;;5114053;28;20184;-77
2023/05/06 12:29:59;;;;;;;4.07;1.63;;;23.50;94.40;;;;;;5113538;28;20158;-77
2023/05/06 12:32:25;;;;;;;5.10;1.40;;;23.50;94.80;;;;;;5094292;28;20739;-77
2023/05/06 12:34:51;;;;;;;6.33;2.10;;;23.50;94.30;;;;;;5094144;28;20177;-77
2023/05/06 12:37:28;;;;;;;3.03;1.27;;;23.70;94.40;;;;;;5112362;28;20623;-77
2023/05/06 12:39:54;;;;;;;4.63;1.30;;;23.60;94.60;;;;;;5112515;28;20554;-77
2023/05/06 12:42:21;;;;;;;4.23;1.37;;;23.30;94.70;;;;;;5094035;28;20173;-77
2023/05/06 12:44:49;;;;;;;5.20;1.50;;;23.20;94.60;;;;;;5112960;28;20211;-77